Time;durP1;ratioP1;P1;durP2;ratioP2;P2;SDS_P1;SDS_P2;PMS_P1;PMS_P2;Temp;Humidity;BMP_temperature;BMP_pressure;BME280_temperature;BME280_humidity;BME280_pressure;Samples;Min_cycle;Max_cycle;Signal;HPM_P1;HPM_P2
2023/04/27 00:02:01;;;;;;;21.02;7.70;;;;;;;3.01;100.00;101907.81;5064429;28;20039;-72
2023/04/27 00:04:27;;;;;;;20.10;7.95;;;;;;;2.97;100.00;101912.00;5061915;28;20067;-71
2023/04/27 00:06:52;;;;;;;20.77;7.72;;;;;;;2.93;100.00;101911.75;5065522;28;20032;-72
2023/04/27 00:09:18;;;;;;;22.58;8.90;;;;;;;2.81;100.00;101908.47;5062057;28;20036;-71
2023/04/27 00:11:43;;;;;;;24.02;10.05;;;;;;;2.78;100.00;101909.22;5064168;28;20033;-70
2023/04/27 00:14:08;;;;;;;21.90;8.55;;;;;;;2.76;100.00;101911.75;5063404;28;20025;-70
2023/04/27 00:16:34;;;;;;;20.45;8.20;;;;;;;2.60;100.00;101911.75;5061692;28;20027;-70
2023/04/27 00:18:59;;;;;;;20.75;7.88;;;;;;;2.54;100.00;101908.81;5064422;28;20035;-70
2023/04/27 00:21:25;;;;;;;21.30;7.97;;;;;;;2.46;100.00;101904.88;5061915;28;20494;-71
2023/04/27 00:23:51;;;;;;;21.20;7.65;;;;;;;2.47;100.00;101906.69;5064794;28;20071;-71
2023/04/27 00:26:16;;;;;;;20.67;7.50;;;;;;;2.42;100.00;101912.56;5062183;28;20029;-71
2023/04/27 00:28:42;;;;;;;21.63;8.52;;;;;;;2.40;100.00;101916.81;5063704;28;20079;-70
2023/04/27 00:31:07;;;;;;;20.27;7.43;;;;;;;2.40;100.00;101908.97;5063284;28;20115;-71
2023/04/27 00:33:32;;;;;;;21.30;8.13;;;;;;;2.39;100.00;101914.09;5062423;28;20061;-72
2023/04/27 00:36:00;;;;;;;21.10;7.85;;;;;;;2.41;100.00;101915.06;5064305;28;20121;-71
2023/04/27 00:38:26;;;;;;;20.35;7.78;;;;;;;2.33;100.00;101909.44;5061249;28;20115;-71
2023/04/27 00:40:51;;;;;;;21.70;7.80;;;;;;;2.34;100.00;101919.03;5057578;28;20372;-70
2023/04/27 00:43:16;;;;;;;20.33;8.02;;;;;;;2.25;100.00;101915.94;5064034;28;20024;-76
2023/04/27 00:45:42;;;;;;;19.98;7.85;;;;;;;2.21;100.00;101912.28;5062479;28;20037;-76
2023/04/27 00:48:12;;;;;;;20.15;7.22;;;;;;;2.14;100.00;101906.63;5062964;28;20021;-76
2023/04/27 00:50:38;;;;;;;20.40;7.68;;;;;;;2.06;100.00;101901.88;5062809;28;20028;-74
2023/04/27 00:53:04;;;;;;;20.10;7.63;;;;;;;2.12;100.00;101903.03;5062033;28;20029;-72
2023/04/27 00:55:30;;;;;;;21.70;7.72;;;;;;;2.13;100.00;101902.22;5064046;28;20035;-78
2023/04/27 00:57:55;;;;;;;20.67;8.05;;;;;;;2.08;100.00;101901.94;5060962;28;20540;-78
2023/04/27 01:00:21;;;;;;;20.15;7.80;;;;;;;2.05;100.00;101907.91;5056863;28;20075;-72
2023/04/27 01:02:47;;;;;;;19.88;7.55;;;;;;;2.03;100.00;101903.41;5063765;28;20086;-75
2023/04/27 01:05:13;;;;;;;20.58;7.40;;;;;;;1.97;100.00;101906.59;5061803;28;20048;-74
2023/04/27 01:07:39;;;;;;;20.75;7.93;;;;;;;1.99;100.00;101910.16;5062497;28;20472;-74
2023/04/27 01:10:06;;;;;;;20.73;8.18;;;;;;;1.95;100.00;101910.78;5063232;28;20036;-75
2023/04/27 01:12:32;;;;;;;20.20;7.78;;;;;;;1.97;100.00;101905.69;5061627;28;20029;-74
2023/04/27 01:14:57;;;;;;;20.48;7.72;;;;;;;1.89;100.00;101900.94;5063471;28;20028;-77
2023/04/27 01:17:24;;;;;;;23.23;8.52;;;;;;;1.82;100.00;101908.31;5060926;28;20036;-72
2023/04/27 01:19:50;;;;;;;20.80;7.90;;;;;;;1.67;100.00;101911.84;5063763;28;20090;-75
2023/04/27 01:22:16;;;;;;;19.75;7.47;;;;;;;1.66;100.00;101912.66;5061293;28;20043;-72
2023/04/27 01:24:41;;;;;;;21.33;7.43;;;;;;;1.65;100.00;101910.84;5062795;28;20102;-71
2023/04/27 01:27:07;;;;;;;20.52;7.78;;;;;;;1.63;100.00;101911.56;5062561;28;20029;-72
2023/04/27 01:29:32;;;;;;;20.95;7.40;;;;;;;1.56;100.00;101913.84;5061624;28;20029;-73
2023/04/27 01:31:58;;;;;;;20.52;7.30;;;;;;;1.58;100.00;101913.91;5063688;28;20029;-70
2023/04/27 01:34:23;;;;;;;18.92;6.95;;;;;;;1.50;100.00;101917.78;5060500;28;20025;-70
2023/04/27 01:36:49;;;;;;;20.52;7.85;;;;;;;1.51;100.00;101916.97;5062454;28;20025;-72
2023/04/27 01:39:15;;;;;;;20.73;8.27;;;;;;;1.47;100.00;101920.22;5061422;28;20039;-72
2023/04/27 01:41:40;;;;;;;20.92;8.43;;;;;;;1.41;100.00;101910.31;5062301;28;20040;-72
2023/04/27 01:44:06;;;;;;;20.52;7.80;;;;;;;1.38;100.00;101908.47;5062797;28;20025;-72
2023/04/27 01:46:31;;;;;;;20.23;7.28;;;;;;;1.36;100.00;101907.44;5061102;28;20361;-71
2023/04/27 01:48:56;;;;;;;20.25;7.55;;;;;;;1.30;100.00;101899.28;5063873;28;20061;-73
2023/04/27 01:51:22;;;;;;;20.25;7.50;;;;;;;1.32;100.00;101910.69;5060429;28;20447;-72
2023/04/27 01:53:48;;;;;;;20.70;7.57;;;;;;;1.30;100.00;101904.50;5063289;28;20040;-72
2023/04/27 01:56:13;;;;;;;20.95;7.88;;;;;;;1.27;100.00;101898.19;5061569;28;20028;-74
2023/04/27 01:58:38;;;;;;;21.27;7.97;;;;;;;1.22;100.00;101895.31;5062104;28;20116;-72
2023/04/27 02:01:04;;;;;;;21.35;7.82;;;;;;;1.18;100.00;101895.94;5062717;28;20154;-70
2023/04/27 02:03:29;;;;;;;21.95;8.52;;;;;;;1.18;100.00;101902.06;5060800;28;20083;-75
2023/04/27 02:05:55;;;;;;;20.42;7.57;;;;;;;1.10;100.00;101900.69;5063879;28;20029;-78
2023/04/27 02:08:20;;;;;;;20.25;7.72;;;;;;;1.11;100.00;101899.00;5060571;28;20031;-76
2023/04/27 02:10:45;;;;;;;20.67;8.05;;;;;;;1.14;100.00;101893.97;5063061;28;20506;-79
2023/04/27 02:13:11;;;;;;;21.13;8.00;;;;;;;1.05;100.00;101899.53;5061680;28;20028;-75
2023/04/27 02:15:36;;;;;;;21.38;7.78;;;;;;;1.01;100.00;101897.56;5061437;28;20025;-79
2023/04/27 02:18:02;;;;;;;21.40;8.18;;;;;;;1.03;100.00;101901.13;5063031;28;20128;-79
2023/04/27 02:20:32;;;;;;;20.85;8.48;;;;;;;0.98;100.00;101893.06;5058996;28;20025;-78
2023/04/27 02:22:57;;;;;;;20.45;7.97;;;;;;;0.90;100.00;101883.00;5063374;28;20122;-79
2023/04/27 02:25:23;;;;;;;20.40;8.27;;;;;;;0.87;100.00;101888.91;5058935;28;20153;-78
2023/04/27 02:27:48;;;;;;;21.42;8.48;;;;;;;0.88;100.00;101884.63;5065083;28;20039;-75
2023/04/27 02:30:14;;;;;;;21.42;8.50;;;;;;;0.81;100.00;101872.91;5064913;28;20475;-79
2023/04/27 02:32:40;;;;;;;21.63;8.32;;;;;;;0.82;100.00;101874.72;5065562;28;20033;-79
2023/04/27 02:35:06;;;;;;;20.52;8.13;;;;;;;0.75;100.00;101875.16;5065875;28;20029;-79
2023/04/27 02:37:32;;;;;;;20.23;8.20;;;;;;;0.78;100.00;101883.16;5064204;28;20024;-79
2023/04/27 02:39:58;;;;;;;20.92;8.60;;;;;;;0.72;100.00;101877.56;5067046;28;20036;-76
2023/04/27 02:42:23;;;;;;;21.95;8.30;;;;;;;0.69;100.00;101868.75;5063381;28;20388;-77
2023/04/27 02:44:49;;;;;;;22.83;8.48;;;;;;;0.67;100.00;101875.59;5066407;28;20035;-78
2023/04/27 02:47:14;;;;;;;20.55;8.25;;;;;;;0.69;100.00;101879.16;5064658;28;20020;-79
2023/04/27 02:49:40;;;;;;;22.85;8.32;;;;;;;0.59;100.00;101876.81;5065046;28;20452;-79
2023/04/27 02:52:05;;;;;;;21.00;8.65;;;;;;;0.48;100.00;101883.06;5065899;28;20052;-78
2023/04/27 02:54:31;;;;;;;23.38;8.35;;;;;;;0.40;100.00;101885.19;5063813;28;20021;-78
2023/04/27 02:56:56;;;;;;;20.63;7.85;;;;;;;0.37;100.00;101889.31;5066651;28;20032;-71
2023/04/27 02:59:22;;;;;;;20.20;8.02;;;;;;;0.40;100.00;101877.38;5095888;28;20037;-71
2023/04/27 03:01:47;;;;;;;21.60;8.30;;;;;;;0.42;100.00;101885.28;5054844;28;20037;-71
2023/04/27 03:04:13;;;;;;;20.83;8.10;;;;;;;0.42;100.00;101883.56;5065196;28;20033;-72
2023/04/27 03:06:40;;;;;;;21.30;8.30;;;;;;;0.42;100.00;101872.28;5065062;28;20033;-71
2023/04/27 03:09:05;;;;;;;20.85;7.63;;;;;;;0.32;100.00;101871.72;5063955;28;20504;-72
2023/04/27 03:11:31;;;;;;;21.33;8.75;;;;;;;0.37;100.00;101869.38;5065960;28;20134;-72
2023/04/27 03:13:56;;;;;;;21.00;8.55;;;;;;;0.31;100.00;101871.63;5063166;28;20029;-72
2023/04/27 03:16:22;;;;;;;21.70;8.40;;;;;;;0.33;100.00;101868.28;5066423;28;20108;-72
2023/04/27 03:18:47;;;;;;;20.90;8.27;;;;;;;0.32;100.00;101871.72;5063482;28;20037;-73
2023/04/27 03:21:12;;;;;;;22.58;8.40;;;;;;;0.28;100.00;101882.72;5065079;28;20033;-71
2023/04/27 03:23:38;;;;;;;21.42;8.55;;;;;;;0.23;100.00;101883.22;5064405;28;20086;-71
2023/04/27 03:26:10;;;;;;;21.10;8.52;;;;;;;0.20;100.00;101881.34;5063536;28;20593;-72
2023/04/27 03:28:36;;;;;;;22.92;9.15;;;;;;;0.17;100.00;101883.75;5065106;28;20498;-72
2023/04/27 03:31:09;;;;;;;21.38;8.82;;;;;;;0.18;100.00;101895.97;5063260;28;20025;-73
2023/04/27 03:33:35;;;;;;;21.85;8.75;;;;;;;0.15;100.00;101893.16;5064917;28;20063;-73
2023/04/27 03:36:03;;;;;;;20.83;8.75;;;;;;;0.08;100.00;101896.19;5063034;28;20057;-71
2023/04/27 03:38:29;;;;;;;21.88;8.45;;;;;;;0.02;100.00;101885.41;5065217;28;20536;-73
2023/04/27 03:40:55;;;;;;;23.00;8.90;;;;;;;0.03;100.00;101901.09;5061193;28;20383;-72
2023/04/27 03:43:20;;;;;;;22.02;8.63;;;;;;;-0.04;100.00;101909.28;5065630;28;20028;-72
2023/04/27 03:45:46;;;;;;;21.42;8.82;;;;;;;-0.02;100.00;101895.56;5063215;28;20032;-72
2023/04/27 03:48:13;;;;;;;22.20;9.18;;;;;;;-0.06;100.00;101897.88;5064166;28;20028;-72
2023/04/27 03:50:38;;;;;;;21.85;8.88;;;;;;;-0.01;100.00;101904.28;5064237;28;20036;-70
2023/04/27 03:53:04;;;;;;;22.33;9.05;;;;;;;-0.01;100.00;101897.38;5062965;28;20077;-73
2023/04/27 03:55:30;;;;;;;22.17;8.70;;;;;;;-0.04;100.00;101904.97;5065240;28;20028;-73
2023/04/27 03:57:55;;;;;;;22.42;9.10;;;;;;;-0.08;100.00;101900.38;5062241;28;20067;-72
2023/04/27 04:00:21;;;;;;;23.35;9.32;;;;;;;-0.12;100.00;101908.78;5065188;28;20111;-72
2023/04/27 04:02:46;;;;;;;21.52;9.25;;;;;;;-0.12;100.00;101908.78;5062771;28;20037;-73
2023/04/27 04:05:13;;;;;;;22.10;9.65;;;;;;;-0.10;100.00;101912.41;5064053;28;20029;-71
2023/04/27 04:07:40;;;;;;;24.35;9.82;;;;;;;-0.10;100.00;101911.47;5063824;28;20510;-79
2023/04/27 04:10:06;;;;;;;23.38;9.73;;;;;;;-0.11;100.00;101904.50;5062693;28;20029;-80
2023/04/27 04:12:32;;;;;;;23.17;10.25;;;;;;;-0.14;100.00;101900.00;5064857;28;20055;-80
2023/04/27 04:14:57;;;;;;;23.83;9.95;;;;;;;-0.11;100.00;101899.31;5061677;28;20116;-79
2023/04/27 04:17:22;;;;;;;22.42;9.98;;;;;;;-0.13;100.00;101904.41;5065297;28;20052;-77
2023/04/27 04:19:48;;;;;;;24.42;10.00;;;;;;;-0.12;100.00;101907.88;5062555;28;20400;-79
2023/04/27 04:22:13;;;;;;;24.48;10.35;;;;;;;-0.08;100.00;101910.78;5063580;28;20155;-79
2023/04/27 04:24:39;;;;;;;24.33;11.45;;;;;;;-0.08;100.00;101910.78;5063462;28;20128;-78
2023/04/27 04:27:04;;;;;;;23.20;10.13;;;;;;;-0.01;100.00;101918.19;5062520;28;20029;-80
2023/04/27 04:29:30;;;;;;;23.98;10.07;;;;;;;0.02;100.00;101919.19;5064581;28;20536;-79
2023/04/27 04:31:55;;;;;;;23.88;10.63;;;;;;;0.03;100.00;101918.38;5061675;28;20037;-78
2023/04/27 04:34:21;;;;;;;25.00;10.63;;;;;;;0.03;100.00;101920.97;5064456;28;20062;-79
2023/04/27 04:36:50;;;;;;;24.60;10.70;;;;;;;0.07;100.00;101926.47;5062178;28;20392;-79
2023/04/27 04:39:18;;;;;;;22.98;10.45;;;;;;;0.10;100.00;101920.56;5062472;28;20399;-79
2023/04/27 04:41:44;;;;;;;24.20;11.13;;;;;;;0.12;100.00;101919.88;5062558;28;20028;-79
2023/04/27 04:44:09;;;;;;;26.02;11.75;;;;;;;0.10;100.00;101930.97;5062661;28;20361;-78
2023/04/27 04:46:36;;;;;;;24.58;11.30;;;;;;;0.16;100.00;101939.16;5063771;28;20086;-78
2023/04/27 04:49:01;;;;;;;24.65;11.18;;;;;;;0.09;100.00;101942.19;5061180;28;20025;-73
2023/04/27 04:51:27;;;;;;;24.17;10.80;;;;;;;0.09;100.00;101935.28;5064430;28;20047;-73
2023/04/27 04:53:52;;;;;;;23.33;9.88;;;;;;;0.11;100.00;101932.78;5061396;28;20048;-73
2023/04/27 04:56:17;;;;;;;23.10;10.10;;;;;;;0.15;100.00;101939.97;5063550;28;20033;-71
2023/04/27 04:58:43;;;;;;;24.38;10.13;;;;;;;0.14;100.00;101938.16;5062412;28;20360;-75
2023/04/27 05:01:08;;;;;;;24.08;10.43;;;;;;;0.23;100.00;101943.06;5061327;28;20372;-76
2023/04/27 05:03:33;;;;;;;23.90;11.07;;;;;;;0.27;100.00;101938.13;5062252;28;20032;-74
2023/04/27 05:05:59;;;;;;;22.88;10.20;;;;;;;0.30;100.00;101940.03;5060951;28;20454;-73
2023/04/27 05:08:24;;;;;;;23.48;10.75;;;;;;;0.24;100.00;101931.84;5064664;28;20095;-74
2023/04/27 05:10:51;;;;;;;25.35;11.45;;;;;;;0.41;100.00;101946.84;5061205;28;20033;-75
2023/04/27 05:13:16;;;;;;;26.10;11.95;;;;;;;0.49;100.00;101947.31;5063134;28;20096;-74
2023/04/27 05:15:41;;;;;;;25.88;11.77;;;;;;;0.60;100.00;101946.28;5062555;28;20029;-78
2023/04/27 05:18:07;;;;;;;24.85;11.80;;;;;;;0.69;100.00;101938.16;5061844;28;20029;-79
2023/04/27 05:20:36;;;;;;;25.38;11.30;;;;;;;0.73;100.00;101941.81;5063774;28;20029;-77
2023/04/27 05:23:02;;;;;;;24.35;11.15;;;;;;;0.76;100.00;101944.63;5061250;28;20040;-75
2023/04/27 05:25:40;;;;;;;24.13;11.40;;;;;;;0.80;100.00;101949.22;5063945;28;20048;-72
2023/04/27 05:28:05;;;;;;;23.52;11.38;;;;;;;0.89;100.00;101947.19;5058903;28;20029;-72
2023/04/27 05:30:30;;;;;;;25.27;11.73;;;;;;;0.97;100.00;101945.94;5064294;28;20027;-72
2023/04/27 05:32:56;;;;;;;25.35;11.95;;;;;;;1.03;100.00;101953.22;5060573;28;20025;-71
2023/04/27 05:35:21;;;;;;;25.52;11.93;;;;;;;1.09;100.00;101947.50;5063566;28;20032;-72
2023/04/27 05:37:46;;;;;;;24.42;11.25;;;;;;;1.16;100.00;101949.66;5061686;28;20032;-72
2023/04/27 05:40:14;;;;;;;24.30;11.45;;;;;;;1.20;100.00;101947.31;5062199;28;20025;-73
2023/04/27 05:42:39;;;;;;;25.33;12.05;;;;;;;1.31;100.00;101961.00;5062375;28;20464;-71
2023/04/27 05:45:05;;;;;;;25.02;11.48;;;;;;;1.37;100.00;101960.50;5061510;28;20033;-72
2023/04/27 05:47:31;;;;;;;25.42;11.50;;;;;;;1.39;100.00;101954.53;5063522;28;20029;-72
2023/04/27 05:49:56;;;;;;;24.40;11.63;;;;;;;1.49;100.00;101966.41;5058931;28;20108;-71
2023/04/27 05:52:28;;;;;;;24.90;11.32;;;;;;;1.54;100.00;101958.84;5063619;28;20025;-74
2023/04/27 05:54:53;;;;;;;24.60;11.47;;;;;;;1.63;100.00;101959.41;5060370;28;20025;-72
2023/04/27 05:57:19;;;;;;;25.45;11.75;;;;;;;1.72;100.00;101961.66;5062874;28;20364;-72
2023/04/27 05:59:44;;;;;;;25.08;11.63;;;;;;;1.85;100.00;101968.47;5061939;28;20040;-72
2023/04/27 06:02:09;;;;;;;24.85;11.60;;;;;;;1.94;100.00;101961.19;5063313;28;20040;-72
2023/04/27 06:04:36;;;;;;;24.52;11.07;;;;;;;2.12;100.00;101963.94;5065975;28;20021;-71
2023/04/27 06:07:04;;;;;;;23.80;10.77;;;;;;;2.30;100.00;101961.47;5064661;28;20029;-74
2023/04/27 06:09:30;;;;;;;25.52;10.63;;;;;;;2.47;100.00;101959.78;5067487;28;20028;-71
2023/04/27 06:11:57;;;;;;;24.30;10.80;;;;;;;2.63;100.00;101966.75;5064056;28;20040;-72
2023/04/27 06:14:23;;;;;;;24.58;10.63;;;;;;;2.73;100.00;101968.16;5067417;28;20033;-72
2023/04/27 06:16:48;;;;;;;24.08;10.45;;;;;;;2.83;100.00;101956.50;5064674;28;20151;-71
2023/04/27 06:19:13;;;;;;;22.45;9.95;;;;;;;3.01;100.00;101954.84;5066142;28;20029;-72
2023/04/27 06:21:39;;;;;;;22.13;9.75;;;;;;;3.17;100.00;101955.66;5066004;28;20024;-72
2023/04/27 06:24:05;;;;;;;23.90;9.05;;;;;;;3.31;100.00;101959.88;5064449;28;20095;-74
2023/04/27 06:26:30;;;;;;;23.85;9.60;;;;;;;3.48;100.00;101948.56;5067553;28;20082;-71
2023/04/27 06:28:56;;;;;;;22.67;8.43;;;;;;;3.65;100.00;101951.13;5063854;28;20044;-71
2023/04/27 06:31:21;;;;;;;23.02;9.48;;;;;;;3.77;100.00;101943.91;5066790;28;20032;-71
2023/04/27 06:33:46;;;;;;;22.50;8.85;;;;;;;3.90;100.00;101947.13;5064959;28;20025;-71
2023/04/27 06:36:12;;;;;;;22.70;8.50;;;;;;;4.08;100.00;101948.03;5064078;28;20052;-72
2023/04/27 06:38:37;;;;;;;22.30;9.00;;;;;;;4.28;100.00;101950.69;5066126;28;20025;-71
2023/04/27 06:41:03;;;;;;;27.63;10.15;;;;;;;4.37;100.00;101956.38;5064151;28;20029;-72
2023/04/27 06:43:29;;;;;;;22.30;8.63;;;;;;;4.49;100.00;101954.34;5067083;28;20040;-72
2023/04/27 06:45:54;;;;;;;22.65;8.68;;;;;;;4.64;100.00;101953.25;5063501;28;20037;-72
2023/04/27 06:48:20;;;;;;;22.48;8.57;;;;;;;4.72;100.00;101950.16;5066559;28;20028;-72
2023/04/27 06:50:46;;;;;;;21.70;9.00;;;;;;;4.78;100.00;101949.56;5064889;28;20066;-72
2023/04/27 06:53:11;;;;;;;21.95;8.63;;;;;;;4.91;100.00;101953.63;5064999;28;20024;-71
2023/04/27 06:55:37;;;;;;;23.60;9.10;;;;;;;5.04;100.00;101944.59;5065847;28;20029;-73
2023/04/27 06:58:03;;;;;;;21.73;8.93;;;;;;;5.16;100.00;101955.59;5062123;28;20032;-72
2023/04/27 07:00:28;;;;;;;23.00;8.98;;;;;;;5.27;100.00;101947.31;5066893;28;20037;-73
2023/04/27 07:02:53;;;;;;;25.13;9.02;;;;;;;5.40;100.00;101952.25;5063320;28;20518;-72
2023/04/27 07:05:19;;;;;;;22.40;8.77;;;;;;;5.50;100.00;101943.94;5065688;28;20033;-70
2023/04/27 07:07:45;;;;;;;22.77;9.25;;;;;;;5.60;100.00;101945.25;5064578;28;20024;-70
2023/04/27 07:10:10;;;;;;;22.67;8.98;;;;;;;5.66;100.00;101944.63;5064371;28;20025;-72
2023/04/27 07:12:37;;;;;;;22.50;8.73;;;;;;;5.57;100.00;101939.88;5064816;28;20063;-72
2023/04/27 07:15:05;;;;;;;22.00;8.73;;;;;;;5.67;100.00;101942.06;5063238;28;20033;-73
2023/04/27 07:17:31;;;;;;;22.75;8.82;;;;;;;5.82;100.00;101930.41;5066205;28;20395;-79
2023/04/27 07:19:56;;;;;;;22.45;8.82;;;;;;;6.01;100.00;101937.31;5045218;28;20040;-79
2023/04/27 07:22:21;;;;;;;24.98;9.27;;;;;;;5.97;100.00;101935.38;5065891;28;20028;-80
2023/04/27 07:24:47;;;;;;;24.17;9.00;;;;;;;6.08;100.00;101935.00;5063672;28;20048;-75
2023/04/27 07:27:13;;;;;;;23.23;9.15;;;;;;;6.12;100.00;101941.28;5064322;28;20040;-72
2023/04/27 07:29:39;;;;;;;21.00;8.40;;;;;;;6.24;100.00;101952.25;5063811;28;20064;-72
2023/04/27 07:32:06;;;;;;;22.85;9.25;;;;;;;6.39;100.00;101938.88;5063308;28;20110;-73
2023/04/27 07:34:31;;;;;;;24.50;9.52;;;;;;;6.51;100.00;101935.81;5081319;28;20520;-75
2023/04/27 07:36:57;;;;;;;23.17;8.90;;;;;;;6.61;100.00;101952.81;5062892;28;20116;-77
2023/04/27 07:39:22;;;;;;;22.30;8.65;;;;;;;6.69;100.00;101937.34;5065492;28;20039;-73
2023/04/27 07:41:48;;;;;;;23.38;9.25;;;;;;;6.80;100.00;101942.16;5063266;28;20584;-72
2023/04/27 07:44:14;;;;;;;22.38;8.88;;;;;;;6.90;100.00;101947.75;5064314;28;20390;-76
2023/04/27 07:46:40;;;;;;;23.38;9.18;;;;;;;7.06;100.00;101944.88;5064520;28;20032;-74
2023/04/27 07:49:05;;;;;;;24.48;8.93;;;;;;;7.13;100.00;101938.97;5061731;28;20025;-74
2023/04/27 07:51:30;;;;;;;22.80;9.40;;;;;;;7.29;100.00;101945.66;5065856;28;20028;-72
2023/04/27 07:53:56;;;;;;;21.80;8.93;;;;;;;7.28;100.00;101945.59;5062267;28;20017;-73
2023/04/27 07:56:21;;;;;;;24.05;9.35;;;;;;;7.33;100.00;101946.69;5065180;28;20510;-75
2023/04/27 07:58:46;;;;;;;23.60;8.88;;;;;;;7.31;100.00;101936.09;5063205;28;20479;-75
2023/04/27 08:01:12;;;;;;;21.30;8.43;;;;;;;7.31;100.00;101933.47;5063595;28;20116;-81
2023/04/27 08:03:37;;;;;;;21.90;8.35;;;;;;;7.36;99.90;101931.00;5063379;28;20040;-78
2023/04/27 08:06:03;;;;;;;21.13;8.27;;;;;;;7.43;96.27;101937.38;5060977;28;20115;-73
2023/04/27 08:08:29;;;;;;;21.73;8.10;;;;;;;7.56;93.79;101938.66;5065407;28;20071;-73
2023/04/27 08:10:55;;;;;;;22.42;8.65;;;;;;;7.88;93.46;101930.97;5062063;28;20040;-70
2023/04/27 08:13:20;;;;;;;20.40;7.57;;;;;;;8.34;83.37;101932.44;5064460;28;20036;-71
2023/04/27 08:15:45;;;;;;;21.35;7.80;;;;;;;8.75;78.25;101930.16;5063128;28;20375;-72
2023/04/27 08:18:11;;;;;;;20.90;7.45;;;;;;;9.17;76.79;101934.88;5063320;28;20086;-73
2023/04/27 08:20:36;;;;;;;21.20;7.72;;;;;;;9.59;71.71;101935.97;5064352;28;20158;-73
2023/04/27 08:23:01;;;;;;;20.10;6.50;;;;;;;9.91;67.16;101941.19;5061548;28;20094;-73
2023/04/27 08:25:27;;;;;;;20.02;6.95;;;;;;;10.29;65.69;101943.84;5063998;28;20072;-72
2023/04/27 08:27:52;;;;;;;19.67;6.88;;;;;;;10.67;65.55;101930.59;5061981;28;20041;-73
2023/04/27 08:30:17;;;;;;;18.92;6.47;;;;;;;10.78;60.83;101923.78;5063846;28;20107;-73
2023/04/27 08:32:43;;;;;;;20.45;6.57;;;;;;;10.85;60.74;101926.56;5063185;28;20133;-74
2023/04/27 08:35:08;;;;;;;18.80;6.30;;;;;;;10.88;60.58;101916.94;5062418;28;20025;-73
2023/04/27 08:37:34;;;;;;;19.15;6.55;;;;;;;11.13;57.80;101915.66;5064623;28;20024;-72
2023/04/27 08:39:59;;;;;;;20.63;7.10;;;;;;;11.38;59.10;101910.81;5061210;28;20036;-73
2023/04/27 08:42:24;;;;;;;20.65;6.93;;;;;;;11.56;56.21;101909.34;5064286;28;20032;-74
2023/04/27 08:44:50;;;;;;;18.35;6.38;;;;;;;11.68;54.52;101904.28;5062172;28;20028;-74
2023/04/27 08:47:16;;;;;;;18.85;6.10;;;;;;;11.96;54.17;101913.59;5063093;28;20032;-73
2023/04/27 08:49:41;;;;;;;19.33;6.50;;;;;;;11.92;52.70;101906.41;5095485;28;20123;-74
2023/04/27 08:52:14;;;;;;;19.33;6.25;;;;;;;11.92;52.82;101918.78;5060714;28;20036;-71
2023/04/27 08:54:40;;;;;;;18.92;6.40;;;;;;;12.23;51.71;101909.56;5063297;28;20021;-72
2023/04/27 08:57:15;;;;;;;19.63;6.35;;;;;;;12.53;52.90;101913.50;5061628;28;20438;-74
2023/04/27 08:59:43;;;;;;;19.83;6.72;;;;;;;12.61;51.30;101905.66;5063009;28;20024;-73
2023/04/27 09:02:19;;;;;;;19.77;6.72;;;;;;;12.82;52.26;101913.00;5062148;28;20472;-75
2023/04/27 09:04:44;;;;;;;18.45;5.63;;;;;;;13.31;48.04;101915.28;5062752;28;20383;-75
2023/04/27 09:07:15;;;;;;;18.65;5.78;;;;;;;13.59;47.78;101917.38;5061988;28;20033;-73
2023/04/27 09:09:40;;;;;;;18.92;6.05;;;;;;;13.39;46.34;101916.31;5063246;28;20020;-72
2023/04/27 09:12:20;;;;;;;17.98;5.78;;;;;;;13.46;48.24;101911.94;5061523;28;20556;-73
2023/04/27 09:14:59;;;;;;;18.90;5.63;;;;;;;12.89;48.72;101917.50;5062227;28;20467;-73
2023/04/27 09:17:26;;;;;;;18.80;5.93;;;;;;;12.81;46.26;101920.06;5064119;28;20068;-73
2023/04/27 09:20:04;;;;;;;17.80;6.00;;;;;;;13.21;47.27;101906.38;5061298;28;20037;-73
2023/04/27 09:22:30;;;;;;;17.20;5.82;;;;;;;13.51;45.16;101908.44;5064301;28;20090;-73
2023/04/27 09:24:55;;;;;;;18.05;6.20;;;;;;;14.08;46.07;101902.69;5060479;28;20104;-72
2023/04/27 09:27:21;;;;;;;18.13;5.82;;;;;;;14.80;42.43;101913.72;5063170;28;20035;-73
2023/04/27 09:29:47;;;;;;;18.17;5.88;;;;;;;15.16;42.48;101904.06;5062068;28;20115;-73
2023/04/27 09:32:19;;;;;;;18.13;6.00;;;;;;;15.31;41.54;101899.66;5062041;28;20451;-73
2023/04/27 09:34:45;;;;;;;;;;;;;;;15.56;42.75;101894.38;5062611;28;20041;-73
2023/04/27 09:37:11;;;;;;;18.95;6.13;;;;;;;15.72;42.04;101885.47;5061617;28;19917;-74
2023/04/27 09:39:37;;;;;;;18.60;6.32;;;;;;;15.75;40.98;101897.91;5063700;28;20035;-73
2023/04/27 09:42:05;;;;;;;18.55;6.05;;;;;;;15.81;39.83;101895.28;5060453;28;20032;-74
2023/04/27 09:44:32;;;;;;;18.17;6.10;;;;;;;16.26;41.11;101893.41;5064392;28;20458;-73
2023/04/27 09:46:58;;;;;;;19.15;6.30;;;;;;;16.46;39.10;101892.47;5056500;28;20029;-73
2023/04/27 09:49:26;;;;;;;17.75;6.10;;;;;;;16.84;40.30;101886.09;5063458;28;20032;-73
2023/04/27 09:51:53;;;;;;;18.00;5.80;;;;;;;17.12;39.31;101891.28;5061229;28;20475;-75
2023/04/27 09:54:21;;;;;;;17.90;5.90;;;;;;;16.78;39.00;101886.13;5062542;28;20090;-72
2023/04/27 09:57:22;;;;;;;19.45;6.05;;;;;;;17.08;41.28;101883.31;5061780;28;20032;-73
2023/04/27 09:59:48;;;;;;;19.60;6.40;;;;;;;17.12;36.95;101876.16;5061554;28;20033;-74
2023/04/27 10:02:18;;;;;;;18.90;6.10;;;;;;;17.07;36.62;101876.19;5062064;28;20086;-73
2023/04/27 10:04:52;;;;;;;18.67;6.20;;;;;;;17.70;37.52;101885.50;5062122;28;20113;-73
2023/04/27 10:07:18;;;;;;;17.42;5.90;;;;;;;17.81;36.84;101881.84;5061727;28;20025;-73
2023/04/27 10:09:53;;;;;;;16.98;5.38;;;;;;;18.11;35.50;101889.63;5061757;28;20075;-73
2023/04/27 10:12:21;;;;;;;16.55;5.38;;;;;;;17.68;33.77;101881.97;5061703;28;20478;-73
2023/04/27 10:14:58;;;;;;;17.85;5.43;;;;;;;17.08;35.28;101874.38;5062242;28;20426;-73
2023/04/27 10:17:32;;;;;;;16.90;5.40;;;;;;;16.48;35.90;101878.22;5060636;28;20029;-73
2023/04/27 10:19:59;;;;;;;17.67;5.75;;;;;;;16.39;35.95;101886.25;5063661;28;20039;-73
2023/04/27 10:22:38;;;;;;;18.10;6.00;;;;;;;16.90;36.37;101881.59;5060254;28;20033;-73
2023/04/27 10:25:21;;;;;;;19.25;6.40;;;;;;;17.18;37.06;101886.81;5056856;28;20037;-74
2023/04/27 10:27:54;;;;;;;16.58;6.00;;;;;;;16.99;36.78;101895.81;5061445;28;20032;-75
2023/04/27 10:30:20;;;;;;;;;;;;;;;17.85;36.80;101888.94;5062949;28;20116;-72
2023/04/27 10:32:53;;;;;;;19.98;6.63;;;;;;;17.76;36.72;101882.75;5061696;28;19958;-72
2023/04/27 10:35:20;;;;;;;18.48;6.22;;;;;;;17.75;35.60;101883.69;5062267;28;20037;-73
2023/04/27 10:37:46;;;;;;;18.20;6.55;;;;;;;18.06;34.25;101888.75;5061476;28;20113;-73
2023/04/27 10:40:13;;;;;;;18.58;6.70;;;;;;;18.70;32.75;101880.88;5061417;28;20116;-73
2023/04/27 10:42:40;;;;;;;18.15;6.70;;;;;;;19.22;34.18;101878.41;5094612;28;20055;-74
2023/04/27 10:45:06;;;;;;;18.52;6.40;;;;;;;19.70;33.34;101875.81;5059161;28;20033;-73
2023/04/27 10:47:44;;;;;;;19.15;6.40;;;;;;;19.75;33.50;101870.38;5063744;28;20033;-72
2023/04/27 10:50:12;;;;;;;18.75;6.20;;;;;;;19.33;32.75;101865.72;5061927;28;20116;-73
2023/04/27 10:52:47;;;;;;;18.60;6.22;;;;;;;19.75;32.76;101867.72;5066076;28;20025;-75
2023/04/27 10:55:13;;;;;;;18.60;6.50;;;;;;;19.54;32.09;101866.28;5064636;28;20036;-74
2023/04/27 10:57:50;;;;;;;18.77;6.65;;;;;;;19.71;32.63;101857.94;5098477;28;20478;-74
2023/04/27 11:00:25;;;;;;;18.83;6.35;;;;;;;19.90;33.07;101855.84;5065068;28;20472;-74
2023/04/27 11:02:52;;;;;;;18.35;6.47;;;;;;;20.40;32.30;101862.00;5063919;28;20067;-73
2023/04/27 11:05:24;;;;;;;18.77;6.32;;;;;;;21.15;29.42;101850.53;5065369;28;20025;-73
2023/04/27 11:07:50;;;;;;;17.33;6.40;;;;;;;20.98;27.60;101845.56;5064300;28;20024;-76
2023/04/27 11:10:17;;;;;;;18.23;6.38;;;;;;;20.79;27.43;101837.91;5064922;28;20036;-73
2023/04/27 11:12:44;;;;;;;18.77;6.88;;;;;;;20.47;28.76;101833.22;5065059;28;20029;-72
2023/04/27 11:15:10;;;;;;;18.67;6.40;;;;;;;19.75;28.95;101830.16;5064027;28;20029;-73